TimePST,TemperatureF,Dew PointF,Humidity,Sea Level PressureIn,VisibilityMPH,Wind Direction,Wind SpeedMPH,Gust SpeedMPH,PrecipitationIn,Events,Conditions,WindDirDegrees,DateUTC
12:55 AM,28.9,19.9,69,30.31,10.0,West,8.1,-,N/A,,Clear,280,2011-11-16 08:55:00
1:55 AM,27.0,19.0,72,30.31,10.0,NNW,3.5,-,N/A,,Clear,340,2011-11-16 09:55:00
2:55 AM,27.0,19.0,72,30.31,10.0,Calm,Calm,-,N/A,,Clear,0,2011-11-16 10:55:00
3:55 AM,26.1,18.0,71,30.30,10.0,Calm,Calm,-,N/A,,Clear,0,2011-11-16 11:55:00
4:55 AM,26.1,18.0,71,30.30,10.0,Calm,Calm,-,N/A,,Clear,0,2011-11-16 12:55:00
6:55 AM,27.0,19.0,72,30.29,10.0,Calm,Calm,-,N/A,,Clear,0,2011-11-16 14:55:00
8:55 AM,28.0,19.9,72,30.29,10.0,Calm,Calm,-,N/A,,Mostly Cloudy,0,2011-11-16 16:55:00
9:55 AM,30.0,21.0,69,30.27,10.0,Calm,Calm,-,N/A,,Overcast,0,2011-11-16 17:55:00
10:55 AM,30.0,21.0,69,30.25,10.0,Calm,Calm,-,N/A,,Overcast,0,2011-11-16 18:55:00
11:55 AM,30.9,19.9,64,30.21,9.0,Calm,Calm,-,N/A,,Overcast,0,2011-11-16 19:55:00
12:38 PM,30.2,19.4,64,30.16,3.0,Calm,Calm,-,0.00,Snow,Light Snow,0,2011-11-16 20:38:00
12:41 PM,30.2,21.2,69,30.16,1.8,Calm,Calm,-,0.00,Snow,Light Snow,0,2011-11-16 20:41:00
12:55 PM,28.9,24.1,82,30.20,0.8,Calm,Calm,-,0.00,Snow,Light Snow,0,2011-11-16 20:55:00
1:06 PM,28.4,24.8,86,30.14,0.8,Calm,Calm,-,0.01,Snow,Light Snow,0,2011-11-16 21:06:00
1:55 PM,28.0,26.1,92,30.15,0.5,Calm,Calm,-,0.04,Fog-Snow,Snow,0,2011-11-16 21:55:00
2:14 PM,28.4,26.6,93,30.09,0.8,Calm,Calm,-,0.01,Snow,Light Snow,0,2011-11-16 22:14:00
2:23 PM,28.4,26.6,93,30.09,1.0,Calm,Calm,-,0.01,Snow,Light Snow,0,2011-11-16 22:23:00
2:31 PM,28.4,26.6,93,30.08,0.8,Calm,Calm,-,0.01,Snow,Light Snow,0,2011-11-16 22:31:00
3:14 PM,28.4,26.6,93,30.06,0.8,Calm,Calm,-,0.00,Snow,Light Snow,0,2011-11-16 23:14:00
3:21 PM,28.4,26.6,93,30.06,1.0,Calm,Calm,-,0.00,Snow,Light Snow,0,2011-11-16 23:21:00
3:28 PM,28.4,26.6,93,30.05,0.8,Calm,Calm,-,0.00,Snow,Light Snow,0,2011-11-16 23:28:00
3:50 PM,28.4,26.6,93,30.04,1.0,Calm,Calm,-,0.01,Snow,Light Snow,0,2011-11-16 23:50:00
3:55 PM,28.0,26.1,92,30.08,1.0,Calm,Calm,-,0.01,Snow,Light Snow,0,2011-11-16 23:55:00
4:36 PM,28.4,26.6,93,30.01,0.5,Calm,Calm,-,0.01,Fog-Snow,Snow,0,2011-11-17 00:36:00
4:55 PM,28.0,26.1,92,30.05,1.0,Calm,Calm,-,0.02,Snow,Light Snow,0,2011-11-17 00:55:00
5:06 PM,28.4,26.6,93,29.99,1.5,Calm,Calm,-,0.01,Snow,Light Snow,0,2011-11-17 01:06:00
5:21 PM,28.4,26.6,93,29.98,0.8,Calm,Calm,-,0.01,Snow,Light Snow,0,2011-11-17 01:21:00
5:32 PM,28.4,26.6,93,29.97,1.0,Calm,Calm,-,0.02,Snow,Light Snow,0,2011-11-17 01:32:00
5:55 PM,28.0,26.1,92,30.00,1.5,Calm,Calm,-,0.03,Snow,Light Snow,0,2011-11-17 01:55:00
6:08 PM,28.4,26.6,93,29.94,2.0,Calm,Calm,-,0.00,Snow,Light Snow,0,2011-11-17 02:08:00
6:43 PM,28.4,26.6,93,29.92,4.0,Calm,Calm,-,0.00,Snow,Light Snow,0,2011-11-17 02:43:00
6:55 PM,28.0,26.1,92,29.96,4.0,Calm,Calm,-,0.00,,Overcast,0,2011-11-17 02:55:00
7:05 PM,28.4,26.6,93,29.91,4.0,Calm,Calm,-,N/A,,Overcast,0,2011-11-17 03:05:00
7:19 PM,28.4,26.6,93,29.89,5.0,Calm,Calm,-,N/A,,Overcast,0,2011-11-17 03:19:00
7:42 PM,26.6,24.8,93,29.87,5.0,Calm,Calm,-,N/A,,Overcast,0,2011-11-17 03:42:00
7:55 PM,28.0,26.1,92,29.90,4.0,Calm,Calm,-,N/A,,Overcast,0,2011-11-17 03:55:00
8:37 PM,28.4,26.6,93,29.82,7.0,Calm,Calm,-,0.00,Snow,Light Snow,0,2011-11-17 04:37:00
8:55 PM,28.0,26.1,92,29.85,10.0,Calm,Calm,-,0.00,,Overcast,0,2011-11-17 04:55:00
9:55 PM,28.0,26.1,92,29.79,9.0,Calm,Calm,-,N/A,,Overcast,0,2011-11-17 05:55:00
10:08 PM,28.4,26.6,93,29.74,6.0,Calm,Calm,-,N/A,,Overcast,0,2011-11-17 06:08:00
10:26 PM,28.4,26.6,93,29.73,5.0,Calm,Calm,-,0.00,,Overcast,0,2011-11-17 06:26:00
10:55 PM,28.0,26.1,92,29.75,4.0,WNW,3.5,-,0.00,,Overcast,290,2011-11-17 06:55:00
11:27 PM,28.4,26.6,93,29.69,2.5,Calm,Calm,-,0.02,,Overcast,0,2011-11-17 07:27:00
11:34 PM,28.4,26.6,93,29.69,3.0,Calm,Calm,-,0.03,,Overcast,0,2011-11-17 07:34:00
11:37 PM,28.4,26.6,93,29.68,2.5,Calm,Calm,-,0.03,Snow,Light Snow,0,2011-11-17 07:37:00
11:41 PM,28.4,26.6,93,29.69,1.5,Calm,Calm,-,0.03,Snow,Light Snow,0,2011-11-17 07:41:00
11:55 PM,28.0,26.1,92,29.70,1.2,ESE,3.5,-,0.04,Snow,Light Snow,110,2011-11-17 07:55:00